createdAt,value
2018-06-21T04:02:43.150Z,9.43
2018-06-21T04:05:10.189Z,10.60
2018-06-21T04:07:40.371Z,10.27
2018-06-21T04:10:13.058Z,11.40
2018-06-21T04:12:42.089Z,10.40
2018-06-21T04:15:12.633Z,10.37
2018-06-21T04:17:42.693Z,9.93
2018-06-21T04:20:14.095Z,10.13
2018-06-21T04:22:41.234Z,10.57
2018-06-21T04:25:10.998Z,9.93
2018-06-21T04:27:42.182Z,11.13
2018-06-21T04:30:10.770Z,10.83
2018-06-21T04:32:41.765Z,9.87
2018-06-21T04:35:08.843Z,10.80
2018-06-21T04:37:41.881Z,10.37
2018-06-21T04:40:09.957Z,10.70
2018-06-21T04:42:40.213Z,9.80
2018-06-21T04:45:12.980Z,9.23
2018-06-21T04:47:40.514Z,10.27
2018-06-21T04:50:12.427Z,10.30
2018-06-21T04:52:42.203Z,10.10
2018-06-21T04:55:13.684Z,11.90
2018-06-21T04:57:43.205Z,11.10
2018-06-21T05:00:12.433Z,10.00
2018-06-21T05:02:44.041Z,10.23
2018-06-21T05:05:13.756Z,10.47
2018-06-21T05:07:44.247Z,10.03
2018-06-21T05:10:14.891Z,10.47
2018-06-21T05:12:46.447Z,11.47
2018-06-21T05:15:18.549Z,10.53
2018-06-21T05:17:48.025Z,11.40
2018-06-21T05:20:20.450Z,11.47
2018-06-21T05:22:55.686Z,11.13
2018-06-21T05:25:22.738Z,11.10
2018-06-21T05:27:49.816Z,10.97
2018-06-21T05:30:16.850Z,9.93
2018-06-21T05:32:43.941Z,11.23
2018-06-21T05:35:10.997Z,11.23
2018-06-21T05:37:38.183Z,11.93
2018-06-21T05:40:05.669Z,11.50
2018-06-21T05:42:32.733Z,11.37
2018-06-21T05:44:59.850Z,11.93
2018-06-21T05:47:26.927Z,11.63
2018-06-21T05:49:54.005Z,11.50
2018-06-21T05:52:21.126Z,11.33
2018-06-21T05:54:49.890Z,10.50
2018-06-21T05:57:22.434Z,11.17
2018-06-21T05:59:52.897Z,10.60
2018-06-21T06:02:19.914Z,10.50
2018-06-21T06:04:47.001Z,10.60
2018-06-21T06:07:14.018Z,11.20
2018-06-21T06:09:41.090Z,11.70
2018-06-21T06:12:08.101Z,10.90
2018-06-21T06:14:35.098Z,11.57
2018-06-21T06:17:02.098Z,11.90
2018-06-21T06:19:29.093Z,11.30
2018-06-21T06:21:56.098Z,12.50
2018-06-21T06:24:23.086Z,12.30
2018-06-21T06:26:50.095Z,13.20
2018-06-21T06:29:17.113Z,12.33
2018-06-21T06:31:44.178Z,12.77
2018-06-21T06:34:11.197Z,13.63
2018-06-21T06:36:38.207Z,13.23
2018-06-21T06:39:14.078Z,13.30
2018-06-21T06:41:41.102Z,14.57
2018-06-21T06:44:08.710Z,13.73
2018-06-21T06:46:35.710Z,12.57
2018-06-21T06:49:02.758Z,15.47
2018-06-21T06:51:29.991Z,14.43
2018-06-21T06:53:57.050Z,13.63
2018-06-21T06:56:24.071Z,13.10
2018-06-21T06:58:51.258Z,12.43
2018-06-21T07:01:18.273Z,13.83
2018-06-21T07:03:45.300Z,12.17
2018-06-21T07:06:12.325Z,13.60
2018-06-21T07:08:39.454Z,12.83
2018-06-21T07:11:06.434Z,13.33
2018-06-21T07:13:33.424Z,12.53
2018-06-21T07:16:00.437Z,11.87
2018-06-21T07:18:27.463Z,11.40
2018-06-21T07:20:54.453Z,10.10
2018-06-21T07:23:21.448Z,9.93
2018-06-21T07:25:48.522Z,9.50
2018-06-21T07:28:15.530Z,10.53
2018-06-21T07:30:42.537Z,9.30
2018-06-21T07:33:09.550Z,10.93
2018-06-21T07:35:36.561Z,9.87
2018-06-21T07:38:03.574Z,10.03
2018-06-21T07:40:30.577Z,9.50
2018-06-21T07:42:57.573Z,9.43
2018-06-21T07:45:24.561Z,9.17
2018-06-21T07:47:51.553Z,7.77
2018-06-21T07:50:18.551Z,8.27
2018-06-21T07:52:45.621Z,8.07
2018-06-21T07:55:12.615Z,7.83
2018-06-21T07:57:39.597Z,10.30
2018-06-21T08:00:07.098Z,6.50
2018-06-21T08:02:34.209Z,6.33
2018-06-21T08:05:01.282Z,6.07
2018-06-21T08:07:28.233Z,5.60
2018-06-21T08:09:55.242Z,5.23
2018-06-21T08:12:22.330Z,7.43
2018-06-21T08:14:49.333Z,4.93
2018-06-21T08:17:16.338Z,7.60
2018-06-21T08:19:43.344Z,5.63
2018-06-21T08:22:10.349Z,4.30
2018-06-21T08:24:37.350Z,5.53
2018-06-21T08:27:04.682Z,6.83
2018-06-21T08:29:31.697Z,5.70
2018-06-21T08:31:58.709Z,7.60
2018-06-21T08:34:25.709Z,4.43
2018-06-21T08:36:52.713Z,4.37
2018-06-21T08:39:19.709Z,14.90
2018-06-21T08:41:46.706Z,5.70
2018-06-21T08:44:13.789Z,3.63
2018-06-21T08:46:40.799Z,4.03
2018-06-21T08:49:07.806Z,5.87
2018-06-21T08:51:34.833Z,5.60
2018-06-21T08:54:01.826Z,4.30
2018-06-21T08:56:28.833Z,5.33
2018-06-21T08:58:55.834Z,5.60
2018-06-21T09:01:22.826Z,4.10
2018-06-21T09:03:49.941Z,5.77
2018-06-21T09:06:16.934Z,5.33
2018-06-21T09:08:43.966Z,3.90
2018-06-21T09:11:11.277Z,6.27
2018-06-21T09:13:38.285Z,3.17
2018-06-21T09:16:06.886Z,4.30
2018-06-21T09:18:33.885Z,4.10
2018-06-21T09:21:01.329Z,6.80
2018-06-21T09:23:28.332Z,3.33
2018-06-21T09:25:55.329Z,9.10
2018-06-21T09:28:22.313Z,4.83
2018-06-21T09:30:49.663Z,11.60
2018-06-21T09:33:16.774Z,7.77
2018-06-21T09:35:43.770Z,4.80
2018-06-21T09:38:16.497Z,8.60
2018-06-21T09:40:49.182Z,3.83
2018-06-21T09:43:21.888Z,6.97
2018-06-21T09:45:54.802Z,29.43
2018-06-21T09:48:29.039Z,6.63
2018-06-21T09:50:56.153Z,6.10
2018-06-21T09:53:23.253Z,3.03
2018-06-21T09:55:50.262Z,3.50
2018-06-21T09:58:17.374Z,5.40
2018-06-21T10:00:49.963Z,3.67
2018-06-21T10:03:16.978Z,8.90
2018-06-21T10:05:43.978Z,8.27
2018-06-21T10:08:11.010Z,8.90
2018-06-21T10:10:38.013Z,4.07
2018-06-21T10:13:05.015Z,5.27
2018-06-21T10:15:32.029Z,6.50
2018-06-21T10:17:59.809Z,4.87
2018-06-21T10:20:27.062Z,4.10
2018-06-21T10:22:56.595Z,7.40
2018-06-21T10:25:26.260Z,4.90
2018-06-21T10:27:53.382Z,5.33
2018-06-21T10:30:24.758Z,4.10
2018-06-21T10:32:52.316Z,4.60
2018-06-21T10:35:19.373Z,4.60
2018-06-21T10:37:46.371Z,4.93
2018-06-21T10:40:13.478Z,4.00
2018-06-21T10:42:40.702Z,6.37
2018-06-21T10:45:07.810Z,3.83
2018-06-21T10:47:34.962Z,5.50
2018-06-21T10:50:01.978Z,5.07
2018-06-21T10:52:29.130Z,3.70
2018-06-21T10:54:56.214Z,4.27
2018-06-21T10:57:23.226Z,4.60
2018-06-21T10:59:50.246Z,3.97
2018-06-21T11:02:17.249Z,3.73
2018-06-21T11:04:44.310Z,6.60
2018-06-21T11:07:11.334Z,3.77
2018-06-21T11:09:38.356Z,4.10
2018-06-21T11:12:05.375Z,3.77
2018-06-21T11:14:32.385Z,4.63
2018-06-21T11:16:59.432Z,5.50
2018-06-21T11:19:26.447Z,5.50
2018-06-21T11:21:53.451Z,4.00
2018-06-21T11:24:20.465Z,3.53
2018-06-21T11:26:47.477Z,3.87
2018-06-21T11:29:14.493Z,5.57
2018-06-21T11:31:41.564Z,8.80
2018-06-21T11:34:08.573Z,8.57
2018-06-21T11:36:35.573Z,3.40
2018-06-21T11:39:02.943Z,3.60
2018-06-21T11:41:29.944Z,6.53
2018-06-21T11:43:56.954Z,5.07
2018-06-21T11:46:23.944Z,7.63
2018-06-21T11:48:50.975Z,3.73
2018-06-21T11:51:17.979Z,3.43
2018-06-21T11:53:44.985Z,3.40
2018-06-21T11:56:11.982Z,8.50
2018-06-21T11:58:38.994Z,3.50
2018-06-21T12:01:06.009Z,3.07
2018-06-21T12:03:33.037Z,3.33
2018-06-21T12:06:00.101Z,5.90
2018-06-21T12:08:27.129Z,2.70
2018-06-21T12:10:54.152Z,3.00
2018-06-21T12:13:21.170Z,5.17
2018-06-21T12:15:48.218Z,7.10
2018-06-21T12:18:15.345Z,4.03
2018-06-21T12:20:42.424Z,8.03
2018-06-21T12:23:09.397Z,5.83
2018-06-21T12:25:36.410Z,2.23
2018-06-21T12:28:03.474Z,3.23
2018-06-21T12:30:30.490Z,2.93
2018-06-21T12:32:57.551Z,3.17
2018-06-21T12:35:24.581Z,2.23
2018-06-21T12:37:51.578Z,2.87
2018-06-21T12:40:18.621Z,2.57
2018-06-21T12:42:45.649Z,3.93
2018-06-21T12:45:12.658Z,3.57
2018-06-21T12:47:39.709Z,2.57
2018-06-21T12:50:06.750Z,3.70
2018-06-21T12:52:33.779Z,4.30
2018-06-21T12:55:00.793Z,4.63
2018-06-21T12:57:27.809Z,2.13
2018-06-21T12:59:54.809Z,2.30
2018-06-21T13:02:21.825Z,2.90
2018-06-21T13:04:48.841Z,3.67
2018-06-21T13:07:15.916Z,3.37
2018-06-21T13:09:54.417Z,3.63
2018-06-21T13:13:36.718Z,7.57
2018-06-21T13:16:03.730Z,3.20
2018-06-21T13:18:30.746Z,2.73
2018-06-21T13:20:57.754Z,4.20
2018-06-21T13:23:24.802Z,2.60
2018-06-21T13:25:51.793Z,3.77
2018-06-21T13:28:18.806Z,5.33
2018-06-21T13:30:45.826Z,4.60
2018-06-21T13:33:12.842Z,4.70
2018-06-21T13:35:39.857Z,6.83
2018-06-21T13:38:06.882Z,5.87
2018-06-21T13:40:33.889Z,5.23
2018-06-21T13:43:00.908Z,5.20
2018-06-21T13:45:27.901Z,3.90
2018-06-21T13:47:54.923Z,7.60
2018-06-21T13:50:21.977Z,9.97
2018-06-21T13:52:48.992Z,5.27
2018-06-21T13:55:16.026Z,4.47
2018-06-21T13:57:43.031Z,8.00
2018-06-21T14:00:10.042Z,5.50
2018-06-21T14:02:37.141Z,4.03
2018-06-21T14:05:04.166Z,3.87
2018-06-21T14:07:31.183Z,6.17
2018-06-21T14:09:58.231Z,3.80
2018-06-21T14:12:25.218Z,6.50
2018-06-21T14:14:52.285Z,3.90
2018-06-21T14:17:19.258Z,3.90
2018-06-21T14:19:46.256Z,3.10
2018-06-21T14:22:13.242Z,3.30
2018-06-21T14:24:40.525Z,3.27
2018-06-21T14:27:07.527Z,3.00
2018-06-21T14:29:34.521Z,3.23
2018-06-21T14:32:01.530Z,3.50
2018-06-21T14:34:28.541Z,5.40
2018-06-21T14:36:55.594Z,4.43
2018-06-21T14:39:22.578Z,3.73
2018-06-21T14:41:49.561Z,3.33
2018-06-21T14:44:16.542Z,4.30
2018-06-21T14:46:43.541Z,4.43
2018-06-21T14:49:10.534Z,5.03
2018-06-21T14:51:37.521Z,5.13
2018-06-21T14:54:04.513Z,5.37
2018-06-21T14:56:31.523Z,6.10
2018-06-21T14:58:58.545Z,5.57
2018-06-21T15:01:25.560Z,5.57
2018-06-21T15:03:52.642Z,6.57
2018-06-21T15:06:19.712Z,9.03
2018-06-21T15:08:46.714Z,6.90
2018-06-21T15:11:13.762Z,7.40
2018-06-21T15:13:40.753Z,7.53
2018-06-21T15:16:07.770Z,7.20
2018-06-21T15:18:34.777Z,6.80
2018-06-21T15:21:01.853Z,7.00
2018-06-21T15:23:28.887Z,7.23
2018-06-21T15:25:56.056Z,7.70
2018-06-21T15:28:23.081Z,7.80
2018-06-21T15:30:50.138Z,9.93
2018-06-21T15:33:17.138Z,8.43
2018-06-21T15:35:44.121Z,7.67
2018-06-21T15:38:11.145Z,7.43
2018-06-21T15:40:38.384Z,6.90
2018-06-21T15:43:05.365Z,6.47
2018-06-21T15:45:32.400Z,8.13
2018-06-21T15:47:59.360Z,7.10
2018-06-21T15:50:26.345Z,7.43
2018-06-21T15:52:53.360Z,7.27
2018-06-21T15:55:20.314Z,7.33
2018-06-21T15:57:47.285Z,7.10
2018-06-21T16:00:14.286Z,10.33
2018-06-21T16:02:42.234Z,6.67
2018-06-21T16:05:09.385Z,6.17
2018-06-21T16:07:36.639Z,7.73
2018-06-21T16:10:04.003Z,5.20
2018-06-21T16:12:31.045Z,5.63
2018-06-21T16:14:58.037Z,5.47
2018-06-21T16:17:25.039Z,5.07
2018-06-21T16:19:52.046Z,5.00
2018-06-21T16:22:19.117Z,5.37
2018-06-21T16:24:46.201Z,5.00
2018-06-21T16:27:13.170Z,5.47
2018-06-21T16:29:40.172Z,3.30
2018-06-21T16:32:07.154Z,4.30
2018-06-21T16:34:34.157Z,4.77
2018-06-21T16:37:01.138Z,5.40
2018-06-21T16:39:28.119Z,7.10
2018-06-21T16:41:55.106Z,7.80
2018-06-21T16:44:22.168Z,3.50
2018-06-21T16:46:49.166Z,3.07
2018-06-21T16:49:16.368Z,2.90
2018-06-21T16:51:43.396Z,4.90
2018-06-21T16:54:10.594Z,5.43
2018-06-21T16:56:37.585Z,4.53
2018-06-21T16:59:04.670Z,4.27
2018-06-21T17:01:31.690Z,3.87
2018-06-21T17:03:58.719Z,2.73
2018-06-21T17:06:25.721Z,5.27
2018-06-21T17:08:52.706Z,4.93
2018-06-21T17:11:19.721Z,4.97
2018-06-21T17:13:46.722Z,3.07
2018-06-21T17:16:13.785Z,8.30
2018-06-21T17:18:40.782Z,5.20
2018-06-21T17:21:07.787Z,4.93
2018-06-21T17:23:34.781Z,6.33
2018-06-21T17:26:01.774Z,2.33
2018-06-21T17:28:28.772Z,6.33
2018-06-21T17:30:55.785Z,11.17
2018-06-21T17:33:22.775Z,3.40
2018-06-21T17:35:49.765Z,7.00
2018-06-21T17:38:16.805Z,4.10
2018-06-21T17:40:43.790Z,3.50
2018-06-21T17:43:10.774Z,4.27
2018-06-21T17:45:37.761Z,4.03
2018-06-21T17:48:04.749Z,4.17
2018-06-21T17:50:31.722Z,5.00
2018-06-21T17:52:58.723Z,2.90
2018-06-21T17:55:25.741Z,5.63
2018-06-21T17:57:52.774Z,2.13
2018-06-21T18:00:19.717Z,3.00
2018-06-21T18:02:46.713Z,6.03
2018-06-21T18:05:13.705Z,2.93
2018-06-21T18:07:40.708Z,4.13
2018-06-21T18:10:07.697Z,2.43
2018-06-21T18:12:34.731Z,2.07
2018-06-21T18:15:01.717Z,2.20
2018-06-21T18:17:28.693Z,3.40
2018-06-21T18:19:55.685Z,3.63
2018-06-21T18:22:22.710Z,5.10
2018-06-21T18:24:49.779Z,8.77
2018-06-21T18:27:16.769Z,2.73
2018-06-21T18:29:43.754Z,2.93
2018-06-21T18:32:10.754Z,2.07
2018-06-21T18:34:37.746Z,2.83
2018-06-21T18:37:04.735Z,3.20
2018-06-21T18:39:31.726Z,2.20
2018-06-21T18:41:58.738Z,2.17
2018-06-21T18:44:25.724Z,2.73
2018-06-21T18:46:52.721Z,3.20
2018-06-21T18:49:19.742Z,5.17
2018-06-21T18:51:46.776Z,3.07
2018-06-21T18:54:13.765Z,2.60
2018-06-21T18:56:40.836Z,3.40
2018-06-21T18:59:07.817Z,2.77
2018-06-21T19:01:34.833Z,4.23
2018-06-21T19:04:01.821Z,3.40
2018-06-21T19:06:34.412Z,2.40
2018-06-21T19:09:07.117Z,8.77
2018-06-21T19:11:39.796Z,4.13
2018-06-21T19:14:06.777Z,3.80
2018-06-21T19:16:33.781Z,4.40
2018-06-21T19:19:00.752Z,4.97
2018-06-21T19:21:27.758Z,3.00
2018-06-21T19:23:55.140Z,8.00
2018-06-21T19:26:22.157Z,4.93
2018-06-21T19:28:50.516Z,2.73
2018-06-21T19:31:22.989Z,4.30
2018-06-21T19:33:53.970Z,6.03
2018-06-21T19:36:24.717Z,4.27
2018-06-21T19:38:55.124Z,9.23
2018-06-21T19:41:24.470Z,6.17
2018-06-21T19:43:53.543Z,4.17
2018-06-21T19:46:20.587Z,6.30
2018-06-21T19:48:47.594Z,2.13
2018-06-21T19:51:14.594Z,6.87
2018-06-21T19:53:41.598Z,3.87
2018-06-21T19:56:08.637Z,3.42
2018-06-21T19:58:35.662Z,4.87
2018-06-21T20:01:02.698Z,3.20
2018-06-21T20:03:29.754Z,1.70
2018-06-21T20:05:56.782Z,4.10
2018-06-21T20:08:23.796Z,4.63
2018-06-21T20:10:56.465Z,3.57
2018-06-21T20:13:23.510Z,4.27
2018-06-21T20:15:51.920Z,2.77
2018-06-21T20:18:19.419Z,3.13
2018-06-21T20:20:46.460Z,2.00
2018-06-21T20:23:20.792Z,3.83
2018-06-21T20:25:47.822Z,6.07
2018-06-21T20:28:14.881Z,4.10
2018-06-21T20:30:41.913Z,3.50
2018-06-21T20:33:08.992Z,4.23
2018-06-21T20:35:36.406Z,4.50
2018-06-21T20:38:03.418Z,2.03
2018-06-21T20:40:30.483Z,5.33
2018-06-21T20:42:57.488Z,1.63
2018-06-21T20:45:24.677Z,2.70
2018-06-21T20:47:51.718Z,4.27
2018-06-21T20:50:18.788Z,5.33
2018-06-21T20:52:45.805Z,4.70
2018-06-21T20:55:12.830Z,1.60
2018-06-21T20:57:39.834Z,4.07
2018-06-21T21:00:06.872Z,2.50
2018-06-21T21:02:33.870Z,3.40
2018-06-21T21:05:07.636Z,1.93
2018-06-21T21:07:34.985Z,4.07
2018-06-21T21:10:02.454Z,5.93
2018-06-21T21:12:29.587Z,4.50
2018-06-21T21:14:56.607Z,2.47
2018-06-21T21:17:23.805Z,3.97
2018-06-21T21:19:53.210Z,3.50
2018-06-21T21:22:21.281Z,7.23
2018-06-21T21:24:48.402Z,2.97
2018-06-21T21:27:15.753Z,7.23
2018-06-21T21:29:42.740Z,4.20
2018-06-21T21:32:09.824Z,4.23
2018-06-21T21:34:36.821Z,10.93
2018-06-21T21:37:03.914Z,5.20
2018-06-21T21:39:30.920Z,4.27
2018-06-21T21:41:57.925Z,6.33
2018-06-21T21:44:24.918Z,3.03
2018-06-21T21:46:51.922Z,4.40
2018-06-21T21:49:18.945Z,2.87
2018-06-21T21:51:45.957Z,2.00
2018-06-21T21:54:13.475Z,5.33
2018-06-21T21:56:40.534Z,2.07
2018-06-21T21:59:07.536Z,5.07
2018-06-21T22:01:34.586Z,5.03
2018-06-21T22:04:01.605Z,5.33
2018-06-21T22:06:28.671Z,2.93
2018-06-21T22:08:55.642Z,5.27
2018-06-21T22:11:22.638Z,2.90
2018-06-21T22:13:54.254Z,3.17
2018-06-21T22:16:21.230Z,3.17
2018-06-21T22:18:48.229Z,4.23
2018-06-21T22:21:15.233Z,6.23
2018-06-21T22:23:42.213Z,3.70
2018-06-21T22:26:13.097Z,3.83
2018-06-21T22:28:41.796Z,2.33
2018-06-21T22:31:08.804Z,3.70
2018-06-21T22:33:35.785Z,3.67
2018-06-21T22:36:02.761Z,4.13
2018-06-21T22:38:29.754Z,5.73
2018-06-21T22:40:56.753Z,2.70
2018-06-21T22:43:23.734Z,5.00
2018-06-21T22:45:50.728Z,2.23
2018-06-21T22:48:17.727Z,2.90
2018-06-21T22:50:44.714Z,3.27
2018-06-21T22:53:12.773Z,1.57
2018-06-21T22:55:39.803Z,4.30
2018-06-21T22:58:06.846Z,1.90
2018-06-21T23:00:33.802Z,7.33
2018-06-21T23:03:00.797Z,2.63
2018-06-21T23:05:27.868Z,7.00
2018-06-21T23:07:54.827Z,5.03
2018-06-21T23:10:21.906Z,5.13
2018-06-21T23:12:48.916Z,5.73
2018-06-21T23:15:15.938Z,2.73
2018-06-21T23:17:42.930Z,4.73
2018-06-21T23:20:09.924Z,2.90
2018-06-21T23:22:36.923Z,2.50
2018-06-21T23:25:03.948Z,2.33
2018-06-21T23:27:30.941Z,3.30
2018-06-21T23:29:57.944Z,6.50
2018-06-21T23:32:24.917Z,4.80
2018-06-21T23:34:51.926Z,5.30
2018-06-21T23:37:18.897Z,3.13
2018-06-21T23:39:45.892Z,4.23
2018-06-21T23:42:12.873Z,5.67
2018-06-21T23:44:39.862Z,3.13
2018-06-21T23:47:06.845Z,1.70
2018-06-21T23:49:33.829Z,3.13
2018-06-21T23:52:00.818Z,4.43
2018-06-21T23:54:27.802Z,3.57
2018-06-21T23:56:54.785Z,5.30
2018-06-21T23:59:21.770Z,4.10
